Time,TemperatureF,DewpointF,PressureIn,WindDirection,WindDirectionDegrees,WindSpeedMPH,WindSpeedGustMPH,Humidity,HourlyPrecipIn,Conditions,Clouds,dailyrainin,SolarRadiationWatts/m^2,SoftwareType,DateUTC
2013-03-17 00:00:00,33.1,30.8,29.88,North,360,0.0,0.0,91,0.00,,,0.06,0,Wunderground v.1.15,2013-03-17 04:00:00,
2013-03-17 00:08:00,33.1,30.5,29.88,North,360,0.0,0.0,90,0.00,,,0.00,0,Wunderground v.1.15,2013-03-17 04:08:00,
2013-03-17 00:10:00,33.1,30.5,29.88,North,360,0.0,0.0,90,0.00,,,0.00,0,Wunderground v.1.15,2013-03-17 04:10:00,
2013-03-17 00:18:00,33.1,30.5,29.88,North,360,0.0,0.0,90,0.00,,,0.00,0,Wunderground v.1.15,2013-03-17 04:18:00,
2013-03-17 00:24:00,33.1,30.5,29.88,North,360,0.0,0.0,90,0.00,,,0.00,0,Wunderground v.1.15,2013-03-17 04:24:00,
2013-03-17 00:30:00,33.1,30.5,29.88,North,360,0.0,0.0,90,0.00,,,0.00,0,Wunderground v.1.15,2013-03-17 04:30:00,
2013-03-17 00:36:00,33.1,30.5,29.88,North,360,0.0,0.0,90,0.00,,,0.00,0,Wunderground v.1.15,2013-03-17 04:36:00,
2013-03-17 00:43:00,33.1,30.2,29.88,North,360,0.0,1.0,89,0.00,,,0.00,0,Wunderground v.1.15,2013-03-17 04:43:00,
2013-03-17 00:50:00,32.9,30.0,29.88,North,360,0.0,0.0,89,0.00,,,0.00,0,Wunderground v.1.15,2013-03-17 04:50:00,
2013-03-17 01:01:00,32.9,30.0,29.88,North,360,0.0,2.0,89,0.00,,,0.00,0,Wunderground v.1.15,2013-03-17 05:01:00,
2013-03-17 01:10:00,32.8,29.6,29.88,North,360,1.0,2.0,88,0.00,,,0.00,0,Wunderground v.1.15,2013-03-17 05:10:00,
2013-03-17 01:16:00,32.7,29.5,29.88,North,360,1.0,2.0,88,0.00,,,0.00,0,Wunderground v.1.15,2013-03-17 05:16:00,
2013-03-17 01:27:00,32.5,29.1,29.88,North,360,2.0,2.0,87,0.00,,,0.00,0,Wunderground v.1.15,2013-03-17 05:27:00,
2013-03-17 01:33:00,32.5,29.1,29.88,North,360,1.0,2.0,87,0.00,,,0.00,0,Wunderground v.1.15,2013-03-17 05:33:00,
2013-03-17 01:39:00,32.4,28.7,29.88,North,360,0.0,1.0,86,0.00,,,0.00,0,Wunderground v.1.15,2013-03-17 05:39:00,
2013-03-17 01:47:00,32.2,28.5,29.88,North,360,0.0,0.0,86,0.00,,,0.00,0,Wunderground v.1.15,2013-03-17 05:47:00,
2013-03-17 01:53:00,32.2,28.5,29.88,North,360,0.0,0.0,86,0.00,,,0.00,0,Wunderground v.1.15,2013-03-17 05:53:00,
2013-03-17 01:59:00,32.1,28.4,29.88,North,360,0.0,0.0,86,0.00,,,0.00,0,Wunderground v.1.15,2013-03-17 05:59:00,
2013-03-17 02:08:00,31.8,28.1,29.89,North,360,0.0,0.0,86,0.00,,,0.00,0,Wunderground v.1.15,2013-03-17 06:08:00,
2013-03-17 02:14:00,31.6,27.6,29.89,North,360,0.0,0.0,85,0.00,,,0.00,0,Wunderground v.1.15,2013-03-17 06:14:00,
2013-03-17 02:20:00,31.5,27.5,29.89,North,360,0.0,0.0,85,0.00,,,0.00,0,Wunderground v.1.15,2013-03-17 06:20:00,
2013-03-17 02:30:00,31.2,27.2,29.89,North,360,0.0,0.0,85,0.00,,,0.00,0,Wunderground v.1.15,2013-03-17 06:30:00,
2013-03-17 02:38:00,31.0,27.0,29.89,North,360,0.0,0.0,85,0.00,,,0.00,0,Wunderground v.1.15,2013-03-17 06:38:00,
2013-03-17 02:44:00,30.9,26.9,29.89,North,360,0.0,0.0,85,0.00,,,0.00,0,Wunderground v.1.15,2013-03-17 06:44:00,
2013-03-17 02:50:00,30.9,26.9,29.89,North,360,0.0,2.0,85,0.00,,,0.00,0,Wunderground v.1.15,2013-03-17 06:50:00,
2013-03-17 02:58:00,30.9,26.9,29.89,North,360,1.0,1.0,85,0.00,,,0.00,0,Wunderground v.1.15,2013-03-17 06:58:00,
2013-03-17 03:04:00,30.7,26.7,29.90,North,360,1.0,3.0,85,0.00,,,0.00,0,Wunderground v.1.15,2013-03-17 07:04:00,
2013-03-17 03:10:00,30.7,26.7,29.90,North,360,1.0,1.0,85,0.00,,,0.00,0,Wunderground v.1.15,2013-03-17 07:10:00,
2013-03-17 03:16:00,30.6,26.6,29.91,North,360,0.0,1.0,85,0.00,,,0.00,0,Wunderground v.1.15,2013-03-17 07:16:00,
2013-03-17 03:24:00,30.4,26.1,29.91,North,360,1.0,2.0,84,0.00,,,0.00,0,Wunderground v.1.15,2013-03-17 07:24:00,
2013-03-17 03:31:00,30.4,25.9,29.91,North,360,1.0,1.0,83,0.00,,,0.00,0,Wunderground v.1.15,2013-03-17 07:31:00,
2013-03-17 03:39:00,30.3,25.5,29.91,North,360,0.0,1.0,82,0.00,,,0.00,0,Wunderground v.1.15,2013-03-17 07:39:00,
2013-03-17 03:46:00,30.3,25.5,29.92,North,360,1.0,1.0,82,0.00,,,0.00,0,Wunderground v.1.15,2013-03-17 07:46:00,
2013-03-17 03:53:00,30.1,25.0,29.92,North,360,0.0,3.0,81,0.00,,,0.00,0,Wunderground v.1.15,2013-03-17 07:53:00,
2013-03-17 03:59:00,30.0,24.6,29.92,North,360,1.0,3.0,80,0.00,,,0.00,0,Wunderground v.1.15,2013-03-17 07:59:00,
2013-03-17 04:09:00,30.0,24.3,29.93,North,360,2.0,5.0,79,0.00,,,0.00,0,Wunderground v.1.15,2013-03-17 08:09:00,
2013-03-17 04:16:00,30.0,24.0,29.93,North,360,1.0,1.0,78,0.00,,,0.00,0,Wunderground v.1.15,2013-03-17 08:16:00,
2013-03-17 04:23:00,29.8,23.5,29.93,North,360,0.0,0.0,77,0.00,,,0.00,0,Wunderground v.1.15,2013-03-17 08:23:00,
2013-03-17 04:29:00,29.8,23.5,29.93,North,360,0.0,0.0,77,0.00,,,0.00,0,Wunderground v.1.15,2013-03-17 08:29:00,
2013-03-17 04:39:00,29.7,23.1,29.94,North,360,0.0,0.0,76,0.00,,,0.00,0,Wunderground v.1.15,2013-03-17 08:39:00,
2013-03-17 04:47:00,29.5,22.6,29.94,North,360,0.0,0.0,75,0.00,,,0.00,0,Wunderground v.1.15,2013-03-17 08:47:00,
2013-03-17 04:57:00,29.4,22.5,29.94,North,360,0.0,0.0,75,0.00,,,0.00,0,Wunderground v.1.15,2013-03-17 08:57:00,
2013-03-17 05:02:00,29.3,22.4,29.95,North,360,0.0,0.0,75,0.00,,,0.00,0,Wunderground v.1.15,2013-03-17 09:02:00,
2013-03-17 05:08:00,29.1,22.2,29.95,North,360,0.0,0.0,75,0.00,,,0.00,0,Wunderground v.1.15,2013-03-17 09:08:00,
2013-03-17 05:14:00,29.1,22.5,29.95,North,360,0.0,0.0,76,0.00,,,0.00,0,Wunderground v.1.15,2013-03-17 09:14:00,
2013-03-17 05:22:00,29.0,22.4,29.95,North,360,0.0,3.0,76,0.00,,,0.00,0,Wunderground v.1.15,2013-03-17 09:22:00,
2013-03-17 05:28:00,28.8,22.2,29.95,North,360,1.0,3.0,76,0.00,,,0.00,0,Wunderground v.1.15,2013-03-17 09:28:00,
2013-03-17 05:34:00,28.8,22.2,29.96,North,360,1.0,2.0,76,0.00,,,0.00,0,Wunderground v.1.15,2013-03-17 09:34:00,
2013-03-17 05:40:00,28.8,21.9,29.96,North,360,1.0,3.0,75,0.00,,,0.00,0,Wunderground v.1.15,2013-03-17 09:40:00,
2013-03-17 05:47:00,29.0,22.1,29.96,North,360,2.0,2.0,75,0.00,,,0.00,0,Wunderground v.1.15,2013-03-17 09:47:00,
2013-03-17 05:54:00,28.8,21.6,29.96,North,360,1.0,6.0,74,0.00,,,0.00,0,Wunderground v.1.15,2013-03-17 09:54:00,
2013-03-17 06:02:00,28.8,21.2,29.97,North,360,1.0,6.0,73,0.00,,,0.00,0,Wunderground v.1.15,2013-03-17 10:02:00,
2013-03-17 06:08:00,28.8,20.9,29.97,North,360,2.0,3.0,72,0.00,,,0.00,0,Wunderground v.1.15,2013-03-17 10:08:00,
2013-03-17 06:14:00,28.7,20.5,29.97,North,360,2.0,2.0,71,0.00,,,0.00,0,Wunderground v.1.15,2013-03-17 10:14:00,
2013-03-17 06:20:00,28.7,19.8,29.98,North,360,3.0,3.0,69,0.00,,,0.00,0,Wunderground v.1.15,2013-03-17 10:20:00,
2013-03-17 06:26:00,28.5,18.9,29.98,North,360,3.0,3.0,67,0.00,,,0.00,0,Wunderground v.1.15,2013-03-17 10:26:00,
2013-03-17 06:33:00,28.5,18.9,29.98,North,360,3.0,3.0,67,0.00,,,0.00,0,Wunderground v.1.15,2013-03-17 10:33:00,
2013-03-17 06:39:00,28.4,18.5,29.98,North,360,2.0,3.0,66,0.00,,,0.00,0,Wunderground v.1.15,2013-03-17 10:39:00,
2013-03-17 06:51:00,28.2,18.3,30.00,North,360,1.0,2.0,66,0.00,,,0.00,0,Wunderground v.1.15,2013-03-17 10:51:00,
2013-03-17 07:01:00,27.9,17.6,30.02,North,360,2.0,5.0,65,0.00,,,0.00,0,Wunderground v.1.15,2013-03-17 11:01:00,
2013-03-17 07:11:00,27.9,17.3,30.02,North,360,2.0,2.0,64,0.00,,,0.00,7,Wunderground v.1.15,2013-03-17 11:11:00,
2013-03-17 07:23:00,27.8,17.2,30.02,North,360,1.0,2.0,64,0.00,,,0.00,33,Wunderground v.1.15,2013-03-17 11:23:00,
2013-03-17 07:29:00,27.6,17.0,30.02,North,360,1.0,2.0,64,0.00,,,0.00,49,Wunderground v.1.15,2013-03-17 11:29:00,
2013-03-17 07:37:00,27.8,16.8,30.04,North,360,1.0,2.0,63,0.00,,,0.00,32,Wunderground v.1.15,2013-03-17 11:37:00,
2013-03-17 07:43:00,27.8,16.8,30.04,North,360,1.0,2.0,63,0.00,,,0.00,90,Wunderground v.1.15,2013-03-17 11:43:00,
2013-03-17 07:49:00,27.9,16.9,30.04,North,360,2.0,2.0,63,0.00,,,0.00,49,Wunderground v.1.15,2013-03-17 11:49:00,
2013-03-17 07:55:00,28.2,16.8,30.04,North,360,2.0,3.0,62,0.00,,,0.00,37,Wunderground v.1.15,2013-03-17 11:55:00,
2013-03-17 08:08:00,28.1,16.0,30.04,North,360,4.0,4.0,60,0.00,,,0.00,141,Wunderground v.1.15,2013-03-17 12:08:00,
2013-03-17 08:18:00,28.4,16.3,30.05,North,360,4.0,8.0,60,0.00,,,0.00,172,Wunderground v.1.15,2013-03-17 12:18:00,
2013-03-17 08:24:00,28.5,16.4,30.05,North,360,4.0,8.0,60,0.00,,,0.00,139,Wunderground v.1.15,2013-03-17 12:24:00,
2013-03-17 08:30:00,28.7,15.8,30.06,North,360,4.0,5.0,58,0.00,,,0.00,195,Wunderground v.1.15,2013-03-17 12:30:00,
2013-03-17 08:37:00,29.0,16.4,30.06,North,360,3.0,5.0,59,0.00,,,0.00,213,Wunderground v.1.15,2013-03-17 12:37:00,
2013-03-17 08:44:00,29.3,15.9,30.06,North,360,3.0,4.0,57,0.00,,,0.00,251,Wunderground v.1.15,2013-03-17 12:44:00,
2013-03-17 08:50:00,29.4,16.0,30.07,North,360,4.0,4.0,57,0.00,,,0.00,230,Wunderground v.1.15,2013-03-17 12:50:00,
2013-03-17 09:00:00,29.8,16.0,30.08,North,360,4.0,4.0,56,0.00,,,0.00,281,Wunderground v.1.15,2013-03-17 13:00:00,
2013-03-17 09:07:00,30.1,15.9,30.08,North,360,4.0,9.0,55,0.00,,,0.00,214,Wunderground v.1.15,2013-03-17 13:07:00,
2013-03-17 09:14:00,30.3,15.6,30.08,North,360,6.0,6.0,54,0.00,,,0.00,279,Wunderground v.1.15,2013-03-17 13:14:00,
2013-03-17 09:20:00,30.4,16.1,30.10,North,360,5.0,7.0,55,0.00,,,0.00,304,Wunderground v.1.15,2013-03-17 13:20:00,
2013-03-17 09:26:00,30.6,15.9,30.10,North,360,5.0,5.0,54,0.00,,,0.00,304,Wunderground v.1.15,2013-03-17 13:26:00,
2013-03-17 09:31:00,30.9,16.6,30.09,North,360,4.0,5.0,55,0.00,,,0.00,338,Wunderground v.1.15,2013-03-17 13:31:00,
2013-03-17 09:38:00,31.2,15.6,30.09,North,360,4.0,5.0,52,0.00,,,0.00,336,Wunderground v.1.15,2013-03-17 13:38:00,
2013-03-17 09:47:00,31.5,15.4,30.09,North,360,4.0,7.0,51,0.00,,,0.00,364,Wunderground v.1.15,2013-03-17 13:47:00,
2013-03-17 09:57:00,31.8,15.3,30.09,North,360,5.0,5.0,50,0.00,,,0.00,355,Wunderground v.1.15,2013-03-17 13:57:00,
2013-03-17 10:03:00,32.1,15.5,30.09,North,360,5.0,5.0,50,0.00,,,0.00,338,Wunderground v.1.15,2013-03-17 14:03:00,
2013-03-17 10:09:00,32.2,15.6,30.09,North,360,4.0,4.0,50,0.00,,,0.00,338,Wunderground v.1.15,2013-03-17 14:09:00,
2013-03-17 10:17:00,32.5,15.9,30.10,North,360,4.0,8.0,50,0.00,,,0.00,309,Wunderground v.1.15,2013-03-17 14:17:00,
2013-03-17 10:27:00,32.4,14.9,30.10,North,360,5.0,15.0,48,0.00,,,0.00,334,Wunderground v.1.15,2013-03-17 14:27:00,
2013-03-17 10:33:00,31.9,14.9,30.11,North,360,9.0,13.0,49,0.00,,,0.00,304,Wunderground v.1.15,2013-03-17 14:33:00,
2013-03-17 10:41:00,32.1,15.5,30.11,North,360,6.0,6.0,50,0.00,,,0.00,322,Wunderground v.1.15,2013-03-17 14:41:00,
2013-03-17 10:47:00,32.2,15.6,30.11,North,360,4.0,6.0,50,0.00,,,0.00,306,Wunderground v.1.15,2013-03-17 14:47:00,
2013-03-17 10:53:00,32.7,15.6,30.11,North,360,4.0,4.0,49,0.00,,,0.00,316,Wunderground v.1.15,2013-03-17 14:53:00,
2013-03-17 10:58:00,32.7,15.1,30.11,North,360,4.0,4.0,48,0.00,,,0.00,316,Wunderground v.1.15,2013-03-17 14:58:00,
2013-03-17 11:04:00,33.1,16.5,30.10,North,360,3.0,3.0,50,0.00,,,0.00,301,Wunderground v.1.15,2013-03-17 15:04:00,
2013-03-17 11:10:00,32.9,14.8,30.10,North,360,5.0,9.0,47,0.00,,,0.01,311,Wunderground v.1.15,2013-03-17 15:10:00,
2013-03-17 11:20:00,32.9,13.9,30.10,North,360,6.0,11.0,45,0.00,,,0.01,295,Wunderground v.1.15,2013-03-17 15:20:00,
2013-03-17 11:27:00,32.7,13.7,30.10,North,360,9.0,9.0,45,0.00,,,0.01,311,Wunderground v.1.15,2013-03-17 15:27:00,
2013-03-17 11:37:00,32.5,13.5,30.10,North,360,9.0,13.0,45,0.00,,,0.01,345,Wunderground v.1.15,2013-03-17 15:37:00,
2013-03-17 11:44:00,32.7,13.2,30.10,North,360,7.0,13.0,44,0.00,,,0.01,329,Wunderground v.1.15,2013-03-17 15:44:00,
2013-03-17 11:50:00,32.7,13.7,30.10,North,360,7.0,7.0,45,0.00,,,0.01,334,Wunderground v.1.15,2013-03-17 15:50:00,
2013-03-17 11:57:00,32.8,13.2,30.10,North,360,6.0,7.0,44,0.00,,,0.01,338,Wunderground v.1.15,2013-03-17 15:57:00,
2013-03-17 12:08:00,32.8,13.2,30.10,North,360,8.0,8.0,44,0.00,,,0.01,366,Wunderground v.1.15,2013-03-17 16:08:00,
2013-03-17 12:14:00,33.2,15.6,30.10,North,360,6.0,8.0,48,0.00,,,0.01,362,Wunderground v.1.15,2013-03-17 16:14:00,
2013-03-17 12:19:00,33.5,14.9,30.10,North,360,3.0,3.0,46,0.00,,,0.01,369,Wunderground v.1.15,2013-03-17 16:19:00,
2013-03-17 12:28:00,34.3,15.6,30.10,North,360,3.0,5.0,46,0.00,,,0.01,378,Wunderground v.1.15,2013-03-17 16:28:00,
2013-03-17 12:37:00,34.7,13.9,30.11,North,360,4.0,5.0,42,0.00,,,0.01,360,Wunderground v.1.15,2013-03-17 16:37:00,
2013-03-17 12:47:00,34.7,13.9,30.11,North,360,5.0,8.0,42,0.00,,,0.01,374,Wunderground v.1.15,2013-03-17 16:47:00,
2013-03-17 12:53:00,34.6,13.8,30.11,North,360,5.0,5.0,42,0.00,,,0.01,399,Wunderground v.1.15,2013-03-17 16:53:00,
2013-03-17 12:59:00,34.7,13.4,30.11,North,360,5.0,8.0,41,0.00,,,0.01,355,Wunderground v.1.15,2013-03-17 16:59:00,
2013-03-17 13:07:00,34.7,14.5,30.12,North,360,5.0,9.0,43,0.00,,,0.01,408,Wunderground v.1.15,2013-03-17 17:07:00,
2013-03-17 13:17:00,35.3,14.5,30.11,North,360,4.0,4.0,42,0.00,,,0.01,383,Wunderground v.1.15,2013-03-17 17:17:00,
2013-03-17 13:23:00,35.5,13.5,30.11,North,360,5.0,7.0,40,0.00,,,0.01,339,Wunderground v.1.15,2013-03-17 17:23:00,
2013-03-17 13:29:00,35.3,13.9,30.11,North,360,6.0,6.0,41,0.00,,,0.01,346,Wunderground v.1.15,2013-03-17 17:29:00,
2013-03-17 13:37:00,35.0,13.1,30.12,North,360,6.0,9.0,40,0.00,,,0.01,316,Wunderground v.1.15,2013-03-17 17:37:00,
2013-03-17 13:47:00,35.0,14.2,30.12,North,360,6.0,7.0,42,0.00,,,0.01,320,Wunderground v.1.15,2013-03-17 17:47:00,
2013-03-17 14:02:00,35.6,13.6,30.12,North,360,3.0,4.0,40,0.00,,,0.01,301,Wunderground v.1.15,2013-03-17 18:02:00,
2013-03-17 14:10:00,36.2,14.2,30.12,North,360,3.0,4.0,40,0.00,,,0.01,343,Wunderground v.1.15,2013-03-17 18:10:00,
2013-03-17 14:17:00,36.3,14.8,30.11,North,360,4.0,8.0,41,0.00,,,0.01,362,Wunderground v.1.15,2013-03-17 18:17:00,
2013-03-17 14:28:00,36.6,14.5,30.11,North,360,3.0,3.0,40,0.00,,,0.01,343,Wunderground v.1.15,2013-03-17 18:28:00,
2013-03-17 14:38:00,37.3,15.2,30.12,North,360,2.0,7.0,40,0.00,,,0.01,387,Wunderground v.1.15,2013-03-17 18:38:00,
2013-03-17 14:48:00,37.5,14.2,30.10,North,360,3.0,3.0,38,0.00,,,0.01,283,Wunderground v.1.15,2013-03-17 18:48:00,
2013-03-17 14:57:00,37.5,13.6,30.10,North,360,4.0,7.0,37,0.00,,,0.01,383,Wunderground v.1.15,2013-03-17 18:57:00,
2013-03-17 15:02:00,37.6,13.6,30.10,North,360,4.0,8.0,37,0.00,,,0.01,424,Wunderground v.1.15,2013-03-17 19:02:00,
2013-03-17 15:10:00,38.3,13.0,30.10,North,360,3.0,4.0,35,0.00,,,0.01,322,Wunderground v.1.15,2013-03-17 19:10:00,
2013-03-17 15:17:00,37.9,12.0,30.10,North,360,6.0,6.0,34,0.00,,,0.01,304,Wunderground v.1.15,2013-03-17 19:17:00,
2013-03-17 15:27:00,38.0,12.7,30.10,North,360,4.0,6.0,35,0.00,,,0.01,325,Wunderground v.1.15,2013-03-17 19:27:00,
2013-03-17 15:33:00,38.2,12.3,30.10,North,360,5.0,10.0,34,0.00,,,0.01,309,Wunderground v.1.15,2013-03-17 19:33:00,
2013-03-17 15:39:00,38.0,11.4,30.10,North,360,6.0,8.0,33,0.00,,,0.01,330,Wunderground v.1.15,2013-03-17 19:39:00,
2013-03-17 15:46:00,38.2,11.6,30.11,North,360,5.0,10.0,33,0.00,,,0.01,322,Wunderground v.1.15,2013-03-17 19:46:00,
2013-03-17 15:53:00,38.3,9.5,30.11,North,360,4.0,8.0,30,0.00,,,0.01,332,Wunderground v.1.15,2013-03-17 19:53:00,
2013-03-17 15:59:00,38.2,10.9,30.11,North,360,5.0,8.0,32,0.00,,,0.01,315,Wunderground v.1.15,2013-03-17 19:59:00,
2013-03-17 16:07:00,38.2,9.4,30.11,North,360,4.0,9.0,30,0.00,,,0.01,274,Wunderground v.1.15,2013-03-17 20:07:00,
2013-03-17 16:17:00,38.0,10.0,30.11,North,360,6.0,9.0,31,0.00,,,0.01,274,Wunderground v.1.15,2013-03-17 20:17:00,
2013-03-17 16:23:00,38.2,10.9,30.11,North,360,4.0,9.0,32,0.00,,,0.01,255,Wunderground v.1.15,2013-03-17 20:23:00,
2013-03-17 16:29:00,38.3,10.3,30.11,North,360,3.0,4.0,31,0.00,,,0.01,227,Wunderground v.1.15,2013-03-17 20:29:00,
2013-03-17 16:37:00,38.3,9.5,30.11,North,360,3.0,9.0,30,0.00,,,0.01,206,Wunderground v.1.15,2013-03-17 20:37:00,
2013-03-17 16:45:00,38.2,9.4,30.12,North,360,4.0,9.0,30,0.00,,,0.01,188,Wunderground v.1.15,2013-03-17 20:45:00,
2013-03-17 16:53:00,38.0,10.7,30.12,North,360,4.0,4.0,32,0.00,,,0.01,176,Wunderground v.1.15,2013-03-17 20:53:00,
2013-03-17 16:58:00,37.9,9.2,30.12,North,360,5.0,10.0,30,0.00,,,0.01,167,Wunderground v.1.15,2013-03-17 20:58:00,
2013-03-17 17:04:00,37.6,9.6,30.12,North,360,6.0,7.0,31,0.00,,,0.01,160,Wunderground v.1.15,2013-03-17 21:04:00,
2013-03-17 17:10:00,37.5,8.8,30.12,North,360,6.0,8.0,30,0.00,,,0.01,153,Wunderground v.1.15,2013-03-17 21:10:00,
2013-03-17 17:18:00,37.5,10.3,30.12,North,360,5.0,5.0,32,0.00,,,0.01,137,Wunderground v.1.15,2013-03-17 21:18:00,
2013-03-17 17:24:00,37.5,10.3,30.12,North,360,3.0,7.0,32,0.00,,,0.01,128,Wunderground v.1.15,2013-03-17 21:24:00,
2013-03-17 17:32:00,37.6,11.0,30.13,North,360,3.0,3.0,33,0.00,,,0.01,114,Wunderground v.1.15,2013-03-17 21:32:00,
2013-03-17 17:40:00,37.8,10.5,30.13,North,360,2.0,5.0,32,0.00,,,0.01,102,Wunderground v.1.15,2013-03-17 21:40:00,
2013-03-17 17:50:00,37.8,11.2,30.14,North,360,2.0,3.0,33,0.00,,,0.01,86,Wunderground v.1.15,2013-03-17 21:50:00,
2013-03-17 17:56:00,37.8,11.2,30.14,North,360,1.0,1.0,33,0.00,,,0.01,79,Wunderground v.1.15,2013-03-17 21:56:00,
2013-03-17 18:08:00,37.5,11.0,30.14,North,360,2.0,2.0,33,0.00,,,0.01,65,Wunderground v.1.15,2013-03-17 22:08:00,
2013-03-17 18:13:00,37.5,11.0,30.14,North,360,2.0,2.0,33,0.00,,,0.01,53,Wunderground v.1.15,2013-03-17 22:13:00,
2013-03-17 18:19:00,37.3,10.1,30.15,North,360,2.0,2.0,32,0.00,,,0.01,44,Wunderground v.1.15,2013-03-17 22:19:00,
2013-03-17 18:26:00,37.2,10.0,30.15,North,360,2.0,3.0,32,0.00,,,0.01,35,Wunderground v.1.15,2013-03-17 22:26:00,
2013-03-17 18:33:00,37.0,9.8,30.16,North,360,1.0,2.0,32,0.00,,,0.01,26,Wunderground v.1.15,2013-03-17 22:33:00,
2013-03-17 18:41:00,36.9,10.4,30.16,North,360,2.0,4.0,33,0.00,,,0.01,18,Wunderground v.1.15,2013-03-17 22:41:00,
2013-03-17 18:51:00,36.8,10.3,30.16,North,360,1.0,3.0,33,0.00,,,0.01,9,Wunderground v.1.15,2013-03-17 22:51:00,
2013-03-17 18:59:00,36.6,10.2,30.16,North,360,2.0,3.0,33,0.00,,,0.01,0,Wunderground v.1.15,2013-03-17 22:59:00,
2013-03-17 19:07:00,36.5,10.1,30.17,North,360,1.0,1.0,33,0.00,,,0.01,0,Wunderground v.1.15,2013-03-17 23:07:00,
2013-03-17 19:13:00,36.5,10.7,30.17,North,360,1.0,2.0,34,0.00,,,0.01,0,Wunderground v.1.15,2013-03-17 23:13:00,
2013-03-17 19:19:00,36.3,9.9,30.17,North,360,1.0,2.0,33,0.00,,,0.01,0,Wunderground v.1.15,2013-03-17 23:19:00,
2013-03-17 19:27:00,36.2,10.5,30.17,North,360,1.0,1.0,34,0.00,,,0.01,0,Wunderground v.1.15,2013-03-17 23:27:00,
2013-03-17 19:33:00,36.2,10.5,30.18,North,360,1.0,1.0,34,0.00,,,0.01,0,Wunderground v.1.15,2013-03-17 23:33:00,
2013-03-17 19:39:00,36.0,10.3,30.18,North,360,1.0,1.0,34,0.00,,,0.01,0,Wunderground v.1.15,2013-03-17 23:39:00,
2013-03-17 19:45:00,35.9,9.5,30.18,North,360,1.0,4.0,33,0.00,,,0.01,0,Wunderground v.1.15,2013-03-17 23:45:00,
2013-03-17 19:54:00,35.9,9.5,30.18,North,360,1.0,1.0,33,0.00,,,0.01,0,Wunderground v.1.15,2013-03-17 23:54:00,
2013-03-17 20:00:00,35.8,10.1,30.19,North,360,0.0,1.0,34,0.00,,,0.01,0,Wunderground v.1.15,2013-03-18 00:00:00,
2013-03-17 20:08:00,35.6,9.3,30.19,North,360,0.0,0.0,33,0.00,,,0.01,0,Wunderground v.1.15,2013-03-18 00:08:00,
2013-03-17 20:14:00,35.6,9.9,30.19,North,360,0.0,1.0,34,0.00,,,0.01,0,Wunderground v.1.15,2013-03-18 00:14:00,
2013-03-17 20:20:00,35.5,9.9,30.20,North,360,0.0,2.0,34,0.00,,,0.01,0,Wunderground v.1.15,2013-03-18 00:20:00,
2013-03-17 20:30:00,35.3,9.7,30.21,North,360,0.0,0.0,34,0.00,,,0.01,0,Wunderground v.1.15,2013-03-18 00:30:00,
2013-03-17 20:38:00,35.3,10.3,30.21,North,360,0.0,0.0,35,0.00,,,0.01,0,Wunderground v.1.15,2013-03-18 00:38:00,
2013-03-17 20:46:00,35.0,10.7,30.21,North,360,0.0,0.0,36,0.00,,,0.01,0,Wunderground v.1.15,2013-03-18 00:46:00,
2013-03-17 20:54:00,35.0,10.7,30.21,North,360,0.0,1.0,36,0.00,,,0.01,0,Wunderground v.1.15,2013-03-18 00:54:00,
2013-03-17 20:59:00,34.9,10.6,30.21,North,360,0.0,1.0,36,0.00,,,0.01,0,Wunderground v.1.15,2013-03-18 00:59:00,
2013-03-17 21:08:00,34.7,10.4,30.22,North,360,0.0,0.0,36,0.00,,,0.01,0,Wunderground v.1.15,2013-03-18 01:08:00,
2013-03-17 21:14:00,34.6,11.0,30.22,North,360,0.0,1.0,37,0.00,,,0.01,0,Wunderground v.1.15,2013-03-18 01:14:00,
2013-03-17 21:20:00,34.6,11.0,30.23,North,360,0.0,1.0,37,0.00,,,0.01,0,Wunderground v.1.15,2013-03-18 01:20:00,
2013-03-17 21:31:00,34.3,10.7,30.23,North,360,0.0,0.0,37,0.00,,,0.01,0,Wunderground v.1.15,2013-03-18 01:31:00,
2013-03-17 21:39:00,34.3,10.7,30.23,North,360,0.0,2.0,37,0.00,,,0.01,0,Wunderground v.1.15,2013-03-18 01:39:00,
2013-03-17 21:46:00,34.1,10.5,30.24,North,360,1.0,1.0,37,0.00,,,0.01,0,Wunderground v.1.15,2013-03-18 01:46:00,
2013-03-17 21:57:00,34.0,9.8,30.24,North,360,0.0,2.0,36,0.00,,,0.01,0,Wunderground v.1.15,2013-03-18 01:57:00,
2013-03-17 22:03:00,33.8,9.0,30.25,North,360,1.0,2.0,35,0.00,,,0.01,0,Wunderground v.1.15,2013-03-18 02:03:00,
2013-03-17 22:09:00,33.8,9.0,30.25,North,360,1.0,2.0,35,0.00,,,0.01,0,Wunderground v.1.15,2013-03-18 02:09:00,
2013-03-17 22:17:00,33.8,9.0,30.26,North,360,1.0,2.0,35,0.00,,,0.01,0,Wunderground v.1.15,2013-03-18 02:17:00,
2013-03-17 22:27:00,33.7,9.5,30.26,North,360,0.0,1.0,36,0.00,,,0.01,0,Wunderground v.1.15,2013-03-18 02:27:00,
2013-03-17 22:37:00,33.5,9.4,30.26,North,360,1.0,1.0,36,0.00,,,0.01,0,Wunderground v.1.15,2013-03-18 02:37:00,
2013-03-17 22:43:00,33.4,8.6,30.26,North,360,1.0,1.0,35,0.00,,,0.01,0,Wunderground v.1.15,2013-03-18 02:43:00,
2013-03-17 22:49:00,33.2,9.1,30.26,North,360,1.0,3.0,36,0.00,,,0.01,0,Wunderground v.1.15,2013-03-18 02:49:00,
2013-03-17 22:57:00,33.2,8.5,30.26,North,360,2.0,3.0,35,0.00,,,0.01,0,Wunderground v.1.15,2013-03-18 02:57:00,
2013-03-17 23:04:00,33.1,9.0,30.27,North,360,2.0,2.0,36,0.00,,,0.01,0,Wunderground v.1.15,2013-03-18 03:04:00,
2013-03-17 23:10:00,32.9,8.8,30.27,North,360,2.0,2.0,36,0.00,,,0.01,0,Wunderground v.1.15,2013-03-18 03:10:00,
2013-03-17 23:22:00,32.7,9.3,30.26,North,360,2.0,2.0,37,0.00,,,0.01,0,Wunderground v.1.15,2013-03-18 03:22:00,
2013-03-17 23:28:00,32.5,8.5,30.26,North,360,2.0,2.0,36,0.00,,,0.01,0,Wunderground v.1.15,2013-03-18 03:28:00,
2013-03-17 23:34:00,32.4,9.0,30.27,North,360,1.0,2.0,37,0.00,,,0.01,0,Wunderground v.1.15,2013-03-18 03:34:00,
2013-03-17 23:40:00,32.2,8.8,30.27,North,360,1.0,2.0,37,0.00,,,0.01,0,Wunderground v.1.15,2013-03-18 03:40:00,
2013-03-17 23:46:00,32.1,9.9,30.27,North,360,1.0,1.0,39,0.00,,,0.01,0,Wunderground v.1.15,2013-03-18 03:46:00,
2013-03-17 23:54:00,31.8,10.2,30.27,North,360,0.0,0.0,40,0.00,,,0.01,0,Wunderground v.1.15,2013-03-18 03:54:00,